sensor_id;sensor_type;location;lat;lon;timestamp;temperature;humidity
488;DHT22;16586;48.976;9.584;2022-09-01T00:01:35;18.70;49.00
488;DHT22;16586;48.976;9.584;2022-09-01T00:06:35;18.60;49.40
488;DHT22;16586;48.976;9.584;2022-09-01T00:09:05;18.60;49.90
488;DHT22;16586;48.976;9.584;2022-09-01T00:14:01;18.70;49.80
488;DHT22;16586;48.976;9.584;2022-09-01T00:16:29;18.60;50.50
488;DHT22;16586;48.976;9.584;2022-09-01T00:18:56;18.60;49.70
488;DHT22;16586;48.976;9.584;2022-09-01T00:21:26;18.60;49.90
488;DHT22;16586;48.976;9.584;2022-09-01T00:31:16;18.50;49.60
488;DHT22;16586;48.976;9.584;2022-09-01T00:33:44;18.50;49.80
488;DHT22;16586;48.976;9.584;2022-09-01T00:36:11;18.40;51.00
488;DHT22;16586;48.976;9.584;2022-09-01T00:38:40;18.30;50.40
488;DHT22;16586;48.976;9.584;2022-09-01T00:41:07;18.30;51.90
488;DHT22;16586;48.976;9.584;2022-09-01T00:43:38;18.30;51.10
488;DHT22;16586;48.976;9.584;2022-09-01T00:46:08;18.30;51.20
488;DHT22;16586;48.976;9.584;2022-09-01T00:48:36;18.30;51.00
488;DHT22;16586;48.976;9.584;2022-09-01T00:51:03;18.20;51.60
488;DHT22;16586;48.976;9.584;2022-09-01T00:53:31;18.20;50.60
488;DHT22;16586;48.976;9.584;2022-09-01T00:56:01;18.20;50.50
488;DHT22;16586;48.976;9.584;2022-09-01T00:58:29;18.20;50.50
488;DHT22;16586;48.976;9.584;2022-09-01T01:00:56;18.20;50.50
488;DHT22;16586;48.976;9.584;2022-09-01T01:03:23;18.10;52.00
488;DHT22;16586;48.976;9.584;2022-09-01T01:05:56;18.10;51.80
488;DHT22;16586;48.976;9.584;2022-09-01T01:08:26;18.10;51.70
488;DHT22;16586;48.976;9.584;2022-09-01T01:11:00;18.10;51.00
488;DHT22;16586;48.976;9.584;2022-09-01T01:13:28;18.10;50.90
488;DHT22;16586;48.976;9.584;2022-09-01T01:15:56;18.30;51.30
488;DHT22;16586;48.976;9.584;2022-09-01T01:18:24;17.80;51.00
488;DHT22;16586;48.976;9.584;2022-09-01T01:20:57;18.10;51.40
488;DHT22;16586;48.976;9.584;2022-09-01T01:23:46;18.10;52.20
488;DHT22;16586;48.976;9.584;2022-09-01T01:26:17;18.10;51.30
488;DHT22;16586;48.976;9.584;2022-09-01T01:28:44;17.20;50.60
488;DHT22;16586;48.976;9.584;2022-09-01T01:31:13;18.00;51.20
488;DHT22;16586;48.976;9.584;2022-09-01T01:33:46;18.00;52.10
488;DHT22;16586;48.976;9.584;2022-09-01T01:36:16;18.00;52.00
488;DHT22;16586;48.976;9.584;2022-09-01T01:38:46;18.00;51.90
488;DHT22;16586;48.976;9.584;2022-09-01T01:41:15;18.00;51.20
488;DHT22;16586;48.976;9.584;2022-09-01T01:43:43;17.90;52.20
488;DHT22;16586;48.976;9.584;2022-09-01T01:46:11;17.90;51.80
488;DHT22;16586;48.976;9.584;2022-09-01T01:48:40;17.90;52.90
488;DHT22;16586;48.976;9.584;2022-09-01T01:51:09;17.90;51.80
488;DHT22;16586;48.976;9.584;2022-09-01T01:53:38;17.90;52.60
488;DHT22;16586;48.976;9.584;2022-09-01T01:56:05;18.10;53.00
488;DHT22;16586;48.976;9.584;2022-09-01T01:58:35;17.90;53.20
488;DHT22;16586;48.976;9.584;2022-09-01T02:01:05;17.90;52.40
488;DHT22;16586;48.976;9.584;2022-09-01T02:03:36;18.00;53.30
488;DHT22;16586;48.976;9.584;2022-09-01T02:06:05;17.90;52.30
488;DHT22;16586;48.976;9.584;2022-09-01T02:08:35;18.00;52.30
488;DHT22;16586;48.976;9.584;2022-09-01T02:11:04;17.90;53.70
488;DHT22;16586;48.976;9.584;2022-09-01T02:13:32;18.00;52.20
488;DHT22;16586;48.976;9.584;2022-09-01T02:16:01;18.00;52.60
488;DHT22;16586;48.976;9.584;2022-09-01T02:18:32;18.00;53.90
488;DHT22;16586;48.976;9.584;2022-09-01T02:21:00;17.90;52.40
488;DHT22;16586;48.976;9.584;2022-09-01T02:23:28;18.00;53.40
488;DHT22;16586;48.976;9.584;2022-09-01T02:25:57;18.10;54.10
488;DHT22;16586;48.976;9.584;2022-09-01T02:28:27;18.10;52.30
488;DHT22;16586;48.976;9.584;2022-09-01T02:33:24;17.60;51.70
488;DHT22;16586;48.976;9.584;2022-09-01T02:35:57;18.10;52.10
488;DHT22;16586;48.976;9.584;2022-09-01T02:38:24;18.10;51.90
488;DHT22;16586;48.976;9.584;2022-09-01T02:40:54;18.10;51.80
488;DHT22;16586;48.976;9.584;2022-09-01T02:43:23;18.10;51.80
488;DHT22;16586;48.976;9.584;2022-09-01T02:45:54;18.10;52.20
488;DHT22;16586;48.976;9.584;2022-09-01T02:48:27;18.00;51.60
488;DHT22;16586;48.976;9.584;2022-09-01T02:51:02;17.90;51.80
488;DHT22;16586;48.976;9.584;2022-09-01T02:53:30;17.90;51.80
488;DHT22;16586;48.976;9.584;2022-09-01T02:55:59;17.90;52.00
488;DHT22;16586;48.976;9.584;2022-09-01T03:00:55;17.80;52.30
488;DHT22;16586;48.976;9.584;2022-09-01T03:03:23;17.80;52.50
488;DHT22;16586;48.976;9.584;2022-09-01T03:05:51;17.80;52.70
488;DHT22;16586;48.976;9.584;2022-09-01T03:08:22;17.80;53.80
488;DHT22;16586;48.976;9.584;2022-09-01T03:10:50;17.80;53.00
488;DHT22;16586;48.976;9.584;2022-09-01T03:13:20;17.90;53.70
488;DHT22;16586;48.976;9.584;2022-09-01T03:15:48;17.90;53.00
488;DHT22;16586;48.976;9.584;2022-09-01T03:18:15;17.90;53.10
488;DHT22;16586;48.976;9.584;2022-09-01T03:20:43;18.00;54.60
488;DHT22;16586;48.976;9.584;2022-09-01T03:23:13;17.90;53.60
488;DHT22;16586;48.976;9.584;2022-09-01T03:25:42;18.00;53.90
488;DHT22;16586;48.976;9.584;2022-09-01T03:28:13;18.00;54.70
488;DHT22;16586;48.976;9.584;2022-09-01T03:30:44;18.10;54.30
488;DHT22;16586;48.976;9.584;2022-09-01T03:33:12;18.10;54.30
488;DHT22;16586;48.976;9.584;2022-09-01T03:35:39;18.20;54.60
488;DHT22;16586;48.976;9.584;2022-09-01T03:38:06;18.20;54.50
488;DHT22;16586;48.976;9.584;2022-09-01T03:40:35;18.30;55.70
488;DHT22;16586;48.976;9.584;2022-09-01T03:43:05;18.30;55.30
488;DHT22;16586;48.976;9.584;2022-09-01T03:45:36;18.40;54.30
488;DHT22;16586;48.976;9.584;2022-09-01T03:48:04;18.40;54.30
488;DHT22;16586;48.976;9.584;2022-09-01T03:50:35;18.40;54.50
488;DHT22;16586;48.976;9.584;2022-09-01T03:53:04;18.40;54.40
488;DHT22;16586;48.976;9.584;2022-09-01T03:55:33;18.40;55.00
488;DHT22;16586;48.976;9.584;2022-09-01T03:58:06;18.50;54.50
488;DHT22;16586;48.976;9.584;2022-09-01T04:00:35;18.50;55.10
488;DHT22;16586;48.976;9.584;2022-09-01T04:03:05;18.50;54.50
488;DHT22;16586;48.976;9.584;2022-09-01T04:05:33;18.50;55.20
488;DHT22;16586;48.976;9.584;2022-09-01T04:08:05;18.50;54.50
488;DHT22;16586;48.976;9.584;2022-09-01T04:10:34;18.50;54.60
488;DHT22;16586;48.976;9.584;2022-09-01T04:13:03;18.50;54.60
488;DHT22;16586;48.976;9.584;2022-09-01T04:15:31;18.60;55.20
488;DHT22;16586;48.976;9.584;2022-09-01T04:18:03;18.60;54.50
488;DHT22;16586;48.976;9.584;2022-09-01T04:20:36;18.60;54.80
488;DHT22;16586;48.976;9.584;2022-09-01T04:23:13;18.80;54.60
488;DHT22;16586;48.976;9.584;2022-09-01T04:25:41;18.70;54.40
488;DHT22;16586;48.976;9.584;2022-09-01T04:28:10;18.70;55.10
488;DHT22;16586;48.976;9.584;2022-09-01T04:30:42;18.70;54.40
488;DHT22;16586;48.976;9.584;2022-09-01T04:33:09;18.70;54.40
488;DHT22;16586;48.976;9.584;2022-09-01T04:35:37;18.70;55.30
488;DHT22;16586;48.976;9.584;2022-09-01T04:38:05;17.00;52.90
488;DHT22;16586;48.976;9.584;2022-09-01T04:40:36;18.80;55.30
488;DHT22;16586;48.976;9.584;2022-09-01T04:43:03;18.80;54.40
488;DHT22;16586;48.976;9.584;2022-09-01T04:45:34;18.80;54.30
488;DHT22;16586;48.976;9.584;2022-09-01T04:48:01;18.80;54.90
488;DHT22;16586;48.976;9.584;2022-09-01T04:50:28;18.80;54.30
488;DHT22;16586;48.976;9.584;2022-09-01T04:52:58;18.90;54.30
488;DHT22;16586;48.976;9.584;2022-09-01T04:55:26;18.90;54.80
488;DHT22;16586;48.976;9.584;2022-09-01T04:57:55;18.90;54.00
488;DHT22;16586;48.976;9.584;2022-09-01T05:00:24;18.90;54.90
488;DHT22;16586;48.976;9.584;2022-09-01T05:02:55;18.90;54.00
488;DHT22;16586;48.976;9.584;2022-09-01T05:05:29;18.90;54.10
488;DHT22;16586;48.976;9.584;2022-09-01T05:10:31;19.00;54.20
488;DHT22;16586;48.976;9.584;2022-09-01T05:13:01;19.00;54.20
488;DHT22;16586;48.976;9.584;2022-09-01T05:15:35;19.00;54.10
488;DHT22;16586;48.976;9.584;2022-09-01T05:18:04;19.00;55.00
488;DHT22;16586;48.976;9.584;2022-09-01T05:23:04;19.10;54.60
488;DHT22;16586;48.976;9.584;2022-09-01T05:25:37;18.10;53.20
488;DHT22;16586;48.976;9.584;2022-09-01T05:28:05;19.30;55.10
488;DHT22;16586;48.976;9.584;2022-09-01T05:33:05;19.30;54.30
488;DHT22;16586;48.976;9.584;2022-09-01T05:35:37;19.20;53.90
488;DHT22;16586;48.976;9.584;2022-09-01T05:38:08;19.30;53.60
488;DHT22;16586;48.976;9.584;2022-09-01T05:40:38;19.30;53.90
488;DHT22;16586;48.976;9.584;2022-09-01T05:43:06;19.30;54.20
488;DHT22;16586;48.976;9.584;2022-09-01T05:48:04;19.40;53.40
488;DHT22;16586;48.976;9.584;2022-09-01T05:50:34;19.40;53.50
488;DHT22;16586;48.976;9.584;2022-09-01T05:53:17;19.40;53.30
488;DHT22;16586;48.976;9.584;2022-09-01T05:55:55;19.40;53.30
488;DHT22;16586;48.976;9.584;2022-09-01T05:58:24;19.30;53.20
488;DHT22;16586;48.976;9.584;2022-09-01T06:00:54;19.40;53.50
488;DHT22;16586;48.976;9.584;2022-09-01T06:03:25;19.40;53.60
488;DHT22;16586;48.976;9.584;2022-09-01T06:05:53;19.40;53.60
488;DHT22;16586;48.976;9.584;2022-09-01T06:08:24;19.40;54.10
488;DHT22;16586;48.976;9.584;2022-09-01T06:10:53;19.40;53.80
488;DHT22;16586;48.976;9.584;2022-09-01T06:13:20;18.90;53.70
488;DHT22;16586;48.976;9.584;2022-09-01T06:15:48;19.50;53.90
488;DHT22;16586;48.976;9.584;2022-09-01T06:18:16;19.60;55.30
488;DHT22;16586;48.976;9.584;2022-09-01T06:20:46;19.60;53.30
488;DHT22;16586;48.976;9.584;2022-09-01T06:23:15;19.70;53.80
488;DHT22;16586;48.976;9.584;2022-09-01T06:25:44;19.70;53.60
488;DHT22;16586;48.976;9.584;2022-09-01T06:28:12;19.70;52.70
488;DHT22;16586;48.976;9.584;2022-09-01T06:30:39;19.70;52.60
488;DHT22;16586;48.976;9.584;2022-09-01T06:33:09;19.80;54.90
488;DHT22;16586;48.976;9.584;2022-09-01T06:35:38;19.90;53.60
488;DHT22;16586;48.976;9.584;2022-09-01T06:38:08;19.80;52.60
488;DHT22;16586;48.976;9.584;2022-09-01T06:43:07;19.80;52.40
488;DHT22;16586;48.976;9.584;2022-09-01T06:45:39;20.00;52.70
488;DHT22;16586;48.976;9.584;2022-09-01T06:48:07;19.90;52.10
488;DHT22;16586;48.976;9.584;2022-09-01T06:50:34;20.00;52.10
488;DHT22;16586;48.976;9.584;2022-09-01T06:53:02;20.00;52.00
488;DHT22;16586;48.976;9.584;2022-09-01T06:55:35;20.00;52.00
488;DHT22;16586;48.976;9.584;2022-09-01T06:58:03;20.00;51.90
488;DHT22;16586;48.976;9.584;2022-09-01T07:00:32;20.10;52.20
488;DHT22;16586;48.976;9.584;2022-09-01T07:03:04;20.20;52.40
488;DHT22;16586;48.976;9.584;2022-09-01T07:05:36;20.20;51.70
488;DHT22;16586;48.976;9.584;2022-09-01T07:08:04;20.30;52.00
488;DHT22;16586;48.976;9.584;2022-09-01T07:10:39;20.30;51.50
488;DHT22;16586;48.976;9.584;2022-09-01T07:13:10;20.40;51.60
488;DHT22;16586;48.976;9.584;2022-09-01T07:15:40;20.50;50.60
488;DHT22;16586;48.976;9.584;2022-09-01T07:18:07;20.60;50.70
488;DHT22;16586;48.976;9.584;2022-09-01T07:20:34;20.60;50.80
488;DHT22;16586;48.976;9.584;2022-09-01T07:23:04;20.90;50.20
488;DHT22;16586;48.976;9.584;2022-09-01T07:28:05;20.50;49.50
488;DHT22;16586;48.976;9.584;2022-09-01T07:30:31;20.80;51.40
488;DHT22;16586;48.976;9.584;2022-09-01T07:32:59;20.80;49.60
488;DHT22;16586;48.976;9.584;2022-09-01T07:37:55;20.80;49.00
488;DHT22;16586;48.976;9.584;2022-09-01T07:40:22;20.80;49.00
488;DHT22;16586;48.976;9.584;2022-09-01T07:42:53;20.80;50.50
488;DHT22;16586;48.976;9.584;2022-09-01T07:45:23;20.80;49.30
488;DHT22;16586;48.976;9.584;2022-09-01T07:47:50;20.80;49.60
488;DHT22;16586;48.976;9.584;2022-09-01T07:50:18;20.90;49.50
488;DHT22;16586;48.976;9.584;2022-09-01T07:52:45;21.00;49.00
488;DHT22;16586;48.976;9.584;2022-09-01T07:55:15;21.00;50.00
488;DHT22;16586;48.976;9.584;2022-09-01T07:57:43;21.00;50.00
488;DHT22;16586;48.976;9.584;2022-09-01T08:00:11;21.10;49.80
488;DHT22;16586;48.976;9.584;2022-09-01T08:02:41;21.20;48.10
488;DHT22;16586;48.976;9.584;2022-09-01T08:05:12;21.20;48.00
488;DHT22;16586;48.976;9.584;2022-09-01T08:07:39;21.20;48.20
488;DHT22;16586;48.976;9.584;2022-09-01T08:10:08;21.20;48.30
488;DHT22;16586;48.976;9.584;2022-09-01T08:12:36;21.20;47.60
488;DHT22;16586;48.976;9.584;2022-09-01T08:17:31;21.20;47.00
488;DHT22;16586;48.976;9.584;2022-09-01T08:19:59;21.10;46.70
488;DHT22;16586;48.976;9.584;2022-09-01T08:22:26;21.10;46.80
488;DHT22;16586;48.976;9.584;2022-09-01T08:24:53;21.10;47.60
488;DHT22;16586;48.976;9.584;2022-09-01T08:27:20;21.30;47.80
488;DHT22;16586;48.976;9.584;2022-09-01T08:29:47;21.20;47.50
488;DHT22;16586;48.976;9.584;2022-09-01T08:32:14;21.30;47.20
488;DHT22;16586;48.976;9.584;2022-09-01T08:34:41;21.40;48.30
488;DHT22;16586;48.976;9.584;2022-09-01T08:39:37;21.60;45.70
488;DHT22;16586;48.976;9.584;2022-09-01T08:42:10;21.20;45.00
488;DHT22;16586;48.976;9.584;2022-09-01T08:44:45;21.70;45.70
488;DHT22;16586;48.976;9.584;2022-09-01T08:47:17;21.70;45.90
488;DHT22;16586;48.976;9.584;2022-09-01T08:49:46;21.80;45.10
488;DHT22;16586;48.976;9.584;2022-09-01T08:52:22;21.90;45.70
488;DHT22;16586;48.976;9.584;2022-09-01T08:54:52;21.90;44.40
488;DHT22;16586;48.976;9.584;2022-09-01T08:57:24;21.90;44.50
488;DHT22;16586;48.976;9.584;2022-09-01T08:59:52;22.00;44.30
488;DHT22;16586;48.976;9.584;2022-09-01T09:02:29;22.00;44.10
488;DHT22;16586;48.976;9.584;2022-09-01T09:05:04;22.20;44.90
488;DHT22;16586;48.976;9.584;2022-09-01T09:07:51;22.20;44.00
488;DHT22;16586;48.976;9.584;2022-09-01T09:10:23;22.20;44.10
488;DHT22;16586;48.976;9.584;2022-09-01T09:13:01;22.40;44.60
488;DHT22;16586;48.976;9.584;2022-09-01T09:15:37;22.30;43.70
488;DHT22;16586;48.976;9.584;2022-09-01T09:18:12;22.40;43.90
488;DHT22;16586;48.976;9.584;2022-09-01T09:20:42;22.30;43.80
488;DHT22;16586;48.976;9.584;2022-09-01T09:23:23;22.30;43.10
488;DHT22;16586;48.976;9.584;2022-09-01T09:28:17;22.20;43.00
488;DHT22;16586;48.976;9.584;2022-09-01T09:30:44;22.20;44.00
488;DHT22;16586;48.976;9.584;2022-09-01T09:33:35;22.40;43.20
488;DHT22;16586;48.976;9.584;2022-09-01T09:36:17;22.50;43.30
488;DHT22;16586;48.976;9.584;2022-09-01T09:38:46;22.50;43.30
488;DHT22;16586;48.976;9.584;2022-09-01T09:41:16;22.70;43.40
488;DHT22;16586;48.976;9.584;2022-09-01T09:43:46;22.90;43.10
488;DHT22;16586;48.976;9.584;2022-09-01T09:46:23;23.10;41.80
488;DHT22;16586;48.976;9.584;2022-09-01T09:49:07;23.10;41.80
488;DHT22;16586;48.976;9.584;2022-09-01T09:54:16;23.30;41.20
488;DHT22;16586;48.976;9.584;2022-09-01T09:56:44;23.50;42.30
488;DHT22;16586;48.976;9.584;2022-09-01T09:59:23;23.60;40.50
488;DHT22;16586;48.976;9.584;2022-09-01T10:01:56;23.50;40.30
488;DHT22;16586;48.976;9.584;2022-09-01T10:04:35;23.60;39.40
488;DHT22;16586;48.976;9.584;2022-09-01T10:07:22;23.60;39.70
488;DHT22;16586;48.976;9.584;2022-09-01T10:09:51;23.80;38.80
488;DHT22;16586;48.976;9.584;2022-09-01T10:12:20;23.80;38.70
488;DHT22;16586;48.976;9.584;2022-09-01T10:14:51;24.10;39.30
488;DHT22;16586;48.976;9.584;2022-09-01T10:17:23;23.80;37.30
488;DHT22;16586;48.976;9.584;2022-09-01T10:19:55;24.20;36.10
488;DHT22;16586;48.976;9.584;2022-09-01T10:22:23;24.20;36.30
488;DHT22;16586;48.976;9.584;2022-09-01T10:27:22;24.60;35.80
488;DHT22;16586;48.976;9.584;2022-09-01T10:29:53;25.00;35.60
488;DHT22;16586;48.976;9.584;2022-09-01T10:32:24;25.00;36.40
488;DHT22;16586;48.976;9.584;2022-09-01T10:34:52;25.20;35.80
488;DHT22;16586;48.976;9.584;2022-09-01T10:37:21;25.20;34.90
488;DHT22;16586;48.976;9.584;2022-09-01T10:40:19;25.20;34.30
488;DHT22;16586;48.976;9.584;2022-09-01T10:43:24;25.10;34.10
488;DHT22;16586;48.976;9.584;2022-09-01T10:45:53;25.00;34.40
488;DHT22;16586;48.976;9.584;2022-09-01T10:48:28;24.90;35.20
488;DHT22;16586;48.976;9.584;2022-09-01T10:53:57;24.80;35.60
488;DHT22;16586;48.976;9.584;2022-09-01T10:56:36;24.80;35.00
488;DHT22;16586;48.976;9.584;2022-09-01T10:59:07;24.80;34.70
488;DHT22;16586;48.976;9.584;2022-09-01T11:02:09;24.80;34.90
488;DHT22;16586;48.976;9.584;2022-09-01T11:05:15;25.10;34.90
488;DHT22;16586;48.976;9.584;2022-09-01T11:10:47;25.70;34.00
488;DHT22;16586;48.976;9.584;2022-09-01T11:13:33;26.10;33.40
488;DHT22;16586;48.976;9.584;2022-09-01T11:16:26;26.10;33.40
488;DHT22;16586;48.976;9.584;2022-09-01T11:18:54;26.20;32.40
488;DHT22;16586;48.976;9.584;2022-09-01T11:21:24;26.40;32.60
488;DHT22;16586;48.976;9.584;2022-09-01T11:24:44;26.60;32.50
488;DHT22;16586;48.976;9.584;2022-09-01T11:27:54;26.90;32.30
488;DHT22;16586;48.976;9.584;2022-09-01T11:30:05;27.20;30.30
488;DHT22;16586;48.976;9.584;2022-09-01T11:32:34;27.50;30.50
488;DHT22;16586;48.976;9.584;2022-09-01T11:35:05;27.40;30.40
488;DHT22;16586;48.976;9.584;2022-09-01T11:37:33;27.70;29.70
488;DHT22;16586;48.976;9.584;2022-09-01T11:40:02;27.60;30.60
488;DHT22;16586;48.976;9.584;2022-09-01T11:42:32;27.40;29.50
488;DHT22;16586;48.976;9.584;2022-09-01T11:45:07;27.40;29.40
488;DHT22;16586;48.976;9.584;2022-09-01T11:47:43;27.40;29.60
488;DHT22;16586;48.976;9.584;2022-09-01T11:50:18;27.90;30.30
488;DHT22;16586;48.976;9.584;2022-09-01T11:52:53;27.90;29.10
488;DHT22;16586;48.976;9.584;2022-09-01T11:55:28;28.40;29.00
488;DHT22;16586;48.976;9.584;2022-09-01T11:57:56;28.30;28.80
488;DHT22;16586;48.976;9.584;2022-09-01T12:00:29;28.60;27.80
488;DHT22;16586;48.976;9.584;2022-09-01T12:02:58;28.50;28.20
488;DHT22;16586;48.976;9.584;2022-09-01T12:05:29;28.50;27.70
488;DHT22;16586;48.976;9.584;2022-09-01T12:07:57;28.50;28.70
488;DHT22;16586;48.976;9.584;2022-09-01T12:10:30;28.10;28.40
488;DHT22;16586;48.976;9.584;2022-09-01T12:13:03;27.90;28.30
488;DHT22;16586;48.976;9.584;2022-09-01T12:15:33;27.70;28.30
488;DHT22;16586;48.976;9.584;2022-09-01T12:18:17;27.50;28.80
488;DHT22;16586;48.976;9.584;2022-09-01T12:20:47;27.20;28.50
488;DHT22;16586;48.976;9.584;2022-09-01T12:23:22;26.60;29.30
488;DHT22;16586;48.976;9.584;2022-09-01T12:25:50;26.60;29.20
488;DHT22;16586;48.976;9.584;2022-09-01T12:28:21;26.50;30.30
488;DHT22;16586;48.976;9.584;2022-09-01T12:30:51;26.20;30.00
488;DHT22;16586;48.976;9.584;2022-09-01T12:33:20;26.00;31.30
488;DHT22;16586;48.976;9.584;2022-09-01T12:35:47;26.00;31.20
488;DHT22;16586;48.976;9.584;2022-09-01T12:38:29;26.10;31.70
488;DHT22;16586;48.976;9.584;2022-09-01T12:40:56;26.10;31.80
488;DHT22;16586;48.976;9.584;2022-09-01T12:43:32;26.10;30.40
488;DHT22;16586;48.976;9.584;2022-09-01T12:46:01;26.00;30.60
488;DHT22;16586;48.976;9.584;2022-09-01T12:48:30;26.10;30.80
488;DHT22;16586;48.976;9.584;2022-09-01T12:50:59;26.00;30.20
488;DHT22;16586;48.976;9.584;2022-09-01T12:53:29;25.90;30.10
488;DHT22;16586;48.976;9.584;2022-09-01T12:58:43;25.90;30.10
488;DHT22;16586;48.976;9.584;2022-09-01T13:01:24;25.90;30.00
488;DHT22;16586;48.976;9.584;2022-09-01T13:04:12;26.00;30.60
488;DHT22;16586;48.976;9.584;2022-09-01T13:06:39;26.00;31.00
488;DHT22;16586;48.976;9.584;2022-09-01T13:09:07;26.00;30.40
488;DHT22;16586;48.976;9.584;2022-09-01T13:11:34;26.00;30.40
488;DHT22;16586;48.976;9.584;2022-09-01T13:14:04;26.10;30.50
488;DHT22;16586;48.976;9.584;2022-09-01T13:19:01;26.20;29.20
488;DHT22;16586;48.976;9.584;2022-09-01T13:21:29;26.20;29.50
488;DHT22;16586;48.976;9.584;2022-09-01T13:23:56;26.10;29.60
488;DHT22;16586;48.976;9.584;2022-09-01T13:26:23;26.20;29.80
488;DHT22;16586;48.976;9.584;2022-09-01T13:28:50;26.30;29.70
488;DHT22;16586;48.976;9.584;2022-09-01T13:31:18;26.40;29.70
488;DHT22;16586;48.976;9.584;2022-09-01T13:33:46;26.60;29.30
488;DHT22;16586;48.976;9.584;2022-09-01T13:36:14;26.60;28.90
488;DHT22;16586;48.976;9.584;2022-09-01T13:38:41;26.70;30.40
488;DHT22;16586;48.976;9.584;2022-09-01T13:41:08;26.80;29.80
488;DHT22;16586;48.976;9.584;2022-09-01T13:43:36;26.90;28.40
488;DHT22;16586;48.976;9.584;2022-09-01T13:46:03;27.00;28.00
488;DHT22;16586;48.976;9.584;2022-09-01T13:48:30;27.20;28.20
488;DHT22;16586;48.976;9.584;2022-09-01T13:51:01;27.30;27.70
488;DHT22;16586;48.976;9.584;2022-09-01T13:53:28;27.10;27.50
488;DHT22;16586;48.976;9.584;2022-09-01T13:55:55;27.50;27.70
488;DHT22;16586;48.976;9.584;2022-09-01T13:58:21;27.80;27.20
488;DHT22;16586;48.976;9.584;2022-09-01T14:00:48;28.10;28.40
488;DHT22;16586;48.976;9.584;2022-09-01T14:03:18;28.60;27.40
488;DHT22;16586;48.976;9.584;2022-09-01T14:05:47;29.30;27.70
488;DHT22;16586;48.976;9.584;2022-09-01T14:08:19;30.60;24.60
488;DHT22;16586;48.976;9.584;2022-09-01T14:10:48;30.60;24.50
488;DHT22;16586;48.976;9.584;2022-09-01T14:13:17;30.80;24.10
488;DHT22;16586;48.976;9.584;2022-09-01T14:15:44;30.80;23.40
488;DHT22;16586;48.976;9.584;2022-09-01T14:18:11;30.50;23.50
488;DHT22;16586;48.976;9.584;2022-09-01T14:20:42;30.50;23.50
488;DHT22;16586;48.976;9.584;2022-09-01T14:25:43;30.50;23.60
488;DHT22;16586;48.976;9.584;2022-09-01T14:30:39;30.50;23.00
488;DHT22;16586;48.976;9.584;2022-09-01T14:33:07;30.80;23.10
488;DHT22;16586;48.976;9.584;2022-09-01T14:35:36;31.50;24.10
488;DHT22;16586;48.976;9.584;2022-09-01T14:38:03;32.10;22.00
488;DHT22;16586;48.976;9.584;2022-09-01T14:40:32;32.50;22.00
488;DHT22;16586;48.976;9.584;2022-09-01T14:43:03;32.40;21.10
488;DHT22;16586;48.976;9.584;2022-09-01T14:45:31;31.90;20.50
488;DHT22;16586;48.976;9.584;2022-09-01T14:47:59;31.20;21.00
488;DHT22;16586;48.976;9.584;2022-09-01T14:52:58;30.40;22.50
488;DHT22;16586;48.976;9.584;2022-09-01T14:55:27;30.20;23.10
488;DHT22;16586;48.976;9.584;2022-09-01T14:57:55;29.90;22.90
488;DHT22;16586;48.976;9.584;2022-09-01T15:00:24;29.80;23.90
488;DHT22;16586;48.976;9.584;2022-09-01T15:02:52;29.60;23.40
488;DHT22;16586;48.976;9.584;2022-09-01T15:05:20;29.70;24.20
488;DHT22;16586;48.976;9.584;2022-09-01T15:07:47;29.70;24.00
488;DHT22;16586;48.976;9.584;2022-09-01T15:10:16;29.70;23.90
488;DHT22;16586;48.976;9.584;2022-09-01T15:12:43;29.70;23.20
488;DHT22;16586;48.976;9.584;2022-09-01T15:15:10;29.80;23.20
488;DHT22;16586;48.976;9.584;2022-09-01T15:17:38;29.80;22.20
488;DHT22;16586;48.976;9.584;2022-09-01T15:20:06;30.00;22.30
488;DHT22;16586;48.976;9.584;2022-09-01T15:22:51;30.30;22.20
488;DHT22;16586;48.976;9.584;2022-09-01T15:25:18;30.30;22.50
488;DHT22;16586;48.976;9.584;2022-09-01T15:27:45;30.50;21.20
488;DHT22;16586;48.976;9.584;2022-09-01T15:30:13;30.70;20.70
488;DHT22;16586;48.976;9.584;2022-09-01T15:32:45;30.90;21.30
488;DHT22;16586;48.976;9.584;2022-09-01T15:35:12;30.90;20.70
488;DHT22;16586;48.976;9.584;2022-09-01T15:37:39;31.00;21.10
488;DHT22;16586;48.976;9.584;2022-09-01T15:40:07;31.00;19.90
488;DHT22;16586;48.976;9.584;2022-09-01T15:42:35;31.00;20.20
488;DHT22;16586;48.976;9.584;2022-09-01T15:45:05;30.80;20.50
488;DHT22;16586;48.976;9.584;2022-09-01T15:47:32;30.70;20.70
488;DHT22;16586;48.976;9.584;2022-09-01T15:50:02;30.60;20.80
488;DHT22;16586;48.976;9.584;2022-09-01T15:52:30;30.30;21.20
488;DHT22;16586;48.976;9.584;2022-09-01T15:54:57;30.10;22.10
488;DHT22;16586;48.976;9.584;2022-09-01T15:57:25;29.80;21.60
488;DHT22;16586;48.976;9.584;2022-09-01T16:00:01;29.60;22.80
488;DHT22;16586;48.976;9.584;2022-09-01T16:02:29;29.40;22.90
488;DHT22;16586;48.976;9.584;2022-09-01T16:04:56;29.20;22.60
488;DHT22;16586;48.976;9.584;2022-09-01T16:07:24;28.90;22.20
488;DHT22;16586;48.976;9.584;2022-09-01T16:09:51;28.80;23.20
488;DHT22;16586;48.976;9.584;2022-09-01T16:12:22;28.60;22.60
488;DHT22;16586;48.976;9.584;2022-09-01T16:14:53;28.30;23.40
488;DHT22;16586;48.976;9.584;2022-09-01T16:17:23;30.60;24.60
488;DHT22;16586;48.976;9.584;2022-09-01T16:19:57;28.40;24.20
488;DHT22;16586;48.976;9.584;2022-09-01T16:22:28;28.20;24.50
488;DHT22;16586;48.976;9.584;2022-09-01T16:24:59;28.10;24.60
488;DHT22;16586;48.976;9.584;2022-09-01T16:27:31;28.00;24.00
488;DHT22;16586;48.976;9.584;2022-09-01T16:30:02;27.80;24.30
488;DHT22;16586;48.976;9.584;2022-09-01T16:35:00;27.60;24.30
488;DHT22;16586;48.976;9.584;2022-09-01T16:37:38;27.50;24.50
488;DHT22;16586;48.976;9.584;2022-09-01T16:40:19;27.30;24.50
488;DHT22;16586;48.976;9.584;2022-09-01T16:42:51;27.20;25.40
488;DHT22;16586;48.976;9.584;2022-09-01T16:45:33;27.00;25.10
488;DHT22;16586;48.976;9.584;2022-09-01T16:48:11;27.00;26.20
488;DHT22;16586;48.976;9.584;2022-09-01T16:50:43;26.50;25.70
488;DHT22;16586;48.976;9.584;2022-09-01T16:53:21;26.50;26.20
488;DHT22;16586;48.976;9.584;2022-09-01T16:55:58;26.60;26.90
488;DHT22;16586;48.976;9.584;2022-09-01T16:58:37;26.30;26.60
488;DHT22;16586;48.976;9.584;2022-09-01T17:01:16;26.30;26.60
488;DHT22;16586;48.976;9.584;2022-09-01T17:03:55;26.30;27.50
488;DHT22;16586;48.976;9.584;2022-09-01T17:06:29;26.20;27.60
488;DHT22;16586;48.976;9.584;2022-09-01T17:09:08;26.10;27.90
488;DHT22;16586;48.976;9.584;2022-09-01T17:11:40;25.90;28.70
488;DHT22;16586;48.976;9.584;2022-09-01T17:14:15;25.80;28.40
488;DHT22;16586;48.976;9.584;2022-09-01T17:16:48;25.70;28.20
488;DHT22;16586;48.976;9.584;2022-09-01T17:19:18;25.50;27.60
488;DHT22;16586;48.976;9.584;2022-09-01T17:21:48;25.50;27.60
488;DHT22;16586;48.976;9.584;2022-09-01T17:24:29;25.40;28.10
488;DHT22;16586;48.976;9.584;2022-09-01T17:27:00;25.30;27.50
488;DHT22;16586;48.976;9.584;2022-09-01T17:29:35;25.10;27.40
488;DHT22;16586;48.976;9.584;2022-09-01T17:32:16;25.10;28.00
488;DHT22;16586;48.976;9.584;2022-09-01T17:34:51;25.00;27.40